createdAt,value
2023-04-06T00:01:41.050Z,21.6
2023-04-06T00:07:30.981Z,20.2
2023-04-06T00:13:21.754Z,21.7
2023-04-06T00:19:12.182Z,21.3
2023-04-06T00:25:02.105Z,21.2
2023-04-06T00:30:53.392Z,21.2
2023-04-06T00:36:44.910Z,20
2023-04-06T00:42:33.910Z,21.9
2023-04-06T00:48:24.003Z,21.8
2023-04-06T00:54:13.337Z,21.7
2023-04-06T01:00:03.553Z,21.5
2023-04-06T01:05:54.592Z,21.1
2023-04-06T01:11:44.225Z,22
2023-04-06T01:17:35.661Z,20.3
2023-04-06T01:23:26.658Z,22.4
2023-04-06T01:29:18.729Z,19.2
2023-04-06T01:35:10.310Z,19.4
2023-04-06T01:41:01.197Z,19.8
2023-04-06T01:46:53.213Z,22.4
2023-04-06T01:52:45.762Z,19.2
2023-04-06T01:58:37.233Z,20.6
2023-04-06T02:04:28.921Z,19.5
2023-04-06T02:10:18.540Z,21.5
2023-04-06T02:16:11.893Z,19
2023-04-06T02:22:03.718Z,22.2
2023-04-06T02:27:54.792Z,20.3
2023-04-06T02:33:46.064Z,19
2023-04-06T02:39:37.839Z,18.2
2023-04-06T02:45:30.174Z,19
2023-04-06T02:51:23.446Z,21.4
2023-04-06T02:57:15.933Z,19.3
2023-04-06T03:03:08.801Z,20.4
2023-04-06T03:09:01.752Z,20.9
2023-04-06T03:14:52.865Z,20
2023-04-06T03:20:44.704Z,20.7
2023-04-06T03:26:36.852Z,22.1
2023-04-06T03:32:29.335Z,23.4
2023-04-06T03:38:20.234Z,21
2023-04-06T03:44:11.953Z,24.3
2023-04-06T03:50:04.534Z,21
2023-04-06T03:55:56.715Z,24.2
2023-04-06T04:01:50.661Z,26.9
2023-04-06T04:07:43.771Z,21.1
2023-04-06T04:13:35.503Z,23.2
2023-04-06T04:19:29.568Z,22.8
2023-04-06T04:25:21.158Z,21.2
2023-04-06T04:31:12.418Z,22.5
2023-04-06T04:37:03.768Z,22
2023-04-06T04:42:56.084Z,21.6
2023-04-06T04:48:48.084Z,21.9
2023-04-06T04:54:38.887Z,21
2023-04-06T05:00:30.533Z,23.9
2023-04-06T05:06:26.700Z,20.3
2023-04-06T05:12:17.976Z,21.8
2023-04-06T05:18:12.203Z,19.9
2023-04-06T05:24:05.265Z,19.9
2023-04-06T05:29:59.524Z,23
2023-04-06T05:35:51.726Z,21.5
2023-04-06T05:41:45.248Z,20.9
2023-04-06T05:47:37.823Z,21.6
2023-04-06T05:53:28.900Z,20.1
2023-04-06T05:59:21.720Z,21.8
2023-04-06T06:05:13.862Z,20.7
2023-04-06T06:11:06.081Z,19.9
2023-04-06T06:16:57.021Z,18.8
2023-04-06T06:22:49.422Z,20.6
2023-04-06T06:28:41.608Z,22.5
2023-04-06T06:34:33.010Z,18.7
2023-04-06T06:40:23.818Z,18
2023-04-06T06:46:15.645Z,24.5
2023-04-06T06:52:10.578Z,18.7
2023-04-06T06:58:01.225Z,17
2023-04-06T07:03:55.123Z,20.5
2023-04-06T07:09:46.912Z,18
2023-04-06T07:15:40.490Z,20.4
2023-04-06T07:21:36.706Z,19
2023-04-06T07:27:27.522Z,18.9
2023-04-06T07:33:20.066Z,20
2023-04-06T07:39:14.270Z,17
2023-04-06T07:45:05.041Z,19.8
2023-04-06T07:50:57.166Z,21.5
2023-04-06T07:56:48.185Z,21.3
2023-04-06T08:02:43.447Z,18.9
2023-04-06T08:08:35.064Z,19
2023-04-06T08:14:28.031Z,20.1
2023-04-06T08:20:26.136Z,18.9
2023-04-06T08:26:18.019Z,19.2
2023-04-06T08:33:18.825Z,20.1
2023-04-06T08:39:10.082Z,20.2
2023-04-06T08:45:03.732Z,19.5
2023-04-06T08:50:57.848Z,21.9
2023-04-06T08:56:49.968Z,21.4
2023-04-06T09:02:41.714Z,22.8
2023-04-06T09:08:35.607Z,21.9
2023-04-06T09:14:27.740Z,20.7
2023-04-06T09:20:21.930Z,22.3
2023-04-06T09:26:15.172Z,23.2
2023-04-06T09:32:06.997Z,22.1
2023-04-06T09:38:02.587Z,22.6
2023-04-06T09:50:03.499Z,22.7
2023-04-06T09:55:56.690Z,19.7
2023-04-06T10:01:48.398Z,21.8
2023-04-06T10:08:11.153Z,20
2023-04-06T10:14:12.060Z,23.9
2023-04-06T10:20:05.232Z,21.1
2023-04-06T10:25:56.522Z,27.5
2023-04-06T10:31:49.487Z,21.8
2023-04-06T10:37:45.359Z,21.9
2023-04-06T10:43:37.505Z,21.9
2023-04-06T10:49:31.936Z,21.4
2023-04-06T10:55:25.641Z,21.7
2023-04-06T11:01:39.911Z,22.3
2023-04-06T11:07:33.453Z,24.3
2023-04-06T11:13:26.856Z,22
2023-04-06T11:19:17.759Z,23.4
2023-04-06T11:31:11.413Z,21.7
2023-04-06T11:37:03.526Z,22.5
2023-04-06T11:42:55.454Z,22.2
2023-04-06T11:48:45.325Z,20.2
2023-04-06T11:54:36.206Z,21.5
2023-04-06T12:00:31.436Z,21.3
2023-04-06T12:06:32.892Z,22.1
2023-04-06T12:12:26.453Z,23.2
2023-04-06T12:18:22.328Z,19
2023-04-06T12:24:16.024Z,17.9
2023-04-06T12:30:12.291Z,20.7
2023-04-06T12:36:05.022Z,16.6
2023-04-06T12:42:03.552Z,17
2023-04-06T12:47:58.694Z,15.8
2023-04-06T12:53:52.970Z,14.1
2023-04-06T12:59:47.412Z,13.8
2023-04-06T13:05:40.771Z,14.1
2023-04-06T13:11:36.422Z,19.5
2023-04-06T13:17:31.798Z,15.7
2023-04-06T13:23:47.938Z,13.6
2023-04-06T13:29:40.129Z,11.6
2023-04-06T13:35:37.200Z,9.5
2023-04-06T13:41:29.730Z,8.4
2023-04-06T13:47:33.796Z,9.5
2023-04-06T13:53:24.626Z,12.4
2023-04-06T13:59:22.963Z,8.1
2023-04-06T14:05:33.850Z,9
2023-04-06T14:11:36.069Z,9.5
2023-04-06T14:17:46.008Z,13.6
2023-04-06T14:24:08.739Z,12.5
2023-04-06T14:30:01.949Z,12.9
2023-04-06T14:35:52.794Z,16.4
2023-04-06T14:41:45.369Z,15.1
2023-04-06T14:47:43.603Z,10.8
2023-04-06T14:53:42.464Z,10.7
2023-04-06T14:59:47.254Z,12.2
2023-04-06T15:06:08.031Z,16.1
2023-04-06T15:12:12.416Z,11.3
2023-04-06T15:18:14.860Z,11.1
2023-04-06T15:24:13.346Z,9.7
2023-04-06T15:30:03.618Z,10.1
2023-04-06T15:35:56.143Z,9.5
2023-04-06T15:41:46.472Z,9.6
2023-04-06T15:47:35.758Z,10.7
2023-04-06T15:53:26.756Z,11.5
2023-04-06T15:59:19.126Z,12.4
2023-04-06T16:05:08.729Z,11.9
2023-04-06T16:10:58.939Z,12
2023-04-06T16:16:52.155Z,12.7
2023-04-06T16:22:45.130Z,12.2
2023-04-06T16:28:36.430Z,13.8
2023-04-06T16:34:27.108Z,18.4
2023-04-06T16:40:19.507Z,15.6
2023-04-06T16:46:11.132Z,17.5
2023-04-06T16:52:02.617Z,16.9
2023-04-06T16:57:52.941Z,17.4
2023-04-06T17:03:44.941Z,17.5
2023-04-06T17:09:39.624Z,19.5
2023-04-06T17:15:31.153Z,19.7
2023-04-06T17:21:23.131Z,19.5
2023-04-06T17:27:15.914Z,18
2023-04-06T17:33:07.556Z,19.6
2023-04-06T17:39:00.260Z,23.2
2023-04-06T17:44:56.052Z,19.7
2023-04-06T17:50:47.000Z,22.5
2023-04-06T17:56:38.629Z,22.4
2023-04-06T18:02:32.027Z,22.9
2023-04-06T18:08:23.817Z,20.5
2023-04-06T18:14:17.241Z,21.5
2023-04-06T18:20:10.442Z,21.2
2023-04-06T18:26:05.443Z,23
2023-04-06T18:31:59.043Z,24.7
2023-04-06T18:37:52.213Z,25.5
2023-04-06T18:43:44.789Z,24.2
2023-04-06T18:49:38.681Z,27.9
2023-04-06T18:55:30.958Z,29.9
2023-04-06T19:01:23.907Z,29.2
2023-04-06T19:07:17.066Z,30.8
2023-04-06T19:13:14.347Z,30
2023-04-06T19:19:06.249Z,26.2
2023-04-06T19:24:59.674Z,27.8
2023-04-06T19:30:54.013Z,27
2023-04-06T19:36:46.857Z,29.7
2023-04-06T19:43:48.396Z,24.2
2023-04-06T19:49:39.422Z,23.8
2023-04-06T19:55:29.550Z,23.7
2023-04-06T20:01:23.189Z,25.3
2023-04-06T20:07:14.631Z,27.6
2023-04-06T20:13:06.220Z,23.1
2023-04-06T20:18:58.035Z,20.3
2023-04-06T20:24:48.533Z,20
2023-04-06T20:30:41.638Z,21.8
2023-04-06T20:36:33.103Z,23.4
2023-04-06T20:42:24.844Z,24.8
2023-04-06T20:48:15.743Z,28.9
2023-04-06T20:54:08.009Z,31.6
2023-04-06T20:59:59.525Z,33.6
2023-04-06T21:05:51.280Z,33.4
2023-04-06T21:11:42.753Z,34.7
2023-04-06T21:17:34.163Z,35.9
2023-04-06T21:23:25.399Z,36.1
2023-04-06T21:29:16.718Z,37
2023-04-06T21:35:09.202Z,35.6
2023-04-06T21:41:01.938Z,36.8
2023-04-06T21:46:54.681Z,35.9
2023-04-06T21:52:45.642Z,35.9
2023-04-06T21:58:37.152Z,37.8
2023-04-06T22:04:30.028Z,33.8
2023-04-06T22:10:22.379Z,32.5
2023-04-06T22:16:15.544Z,33.4
2023-04-06T22:22:05.705Z,33.6
2023-04-06T22:27:57.900Z,32.2
2023-04-06T22:33:49.577Z,31
2023-04-06T22:39:42.959Z,30.8
2023-04-06T22:45:33.912Z,29.5
2023-04-06T22:51:27.172Z,28.6
2023-04-06T22:57:19.131Z,29.8
2023-04-06T23:03:10.708Z,30.2
2023-04-06T23:09:03.295Z,28.7
2023-04-06T23:14:56.698Z,28.9
2023-04-06T23:20:47.716Z,27.6
2023-04-06T23:26:39.186Z,27.2
2023-04-06T23:32:31.917Z,26.2
2023-04-06T23:38:24.468Z,27.8
2023-04-06T23:44:15.853Z,28.8
2023-04-06T23:50:08.068Z,27.3
2023-04-06T23:56:00.040Z,27.9
